sensor_id;sensor_type;location;lat;lon;timestamp;temperature;humidity
24262;DHT22;12385;51.412;5.540;2022-11-20T00:00:12;1.30;99.90
24262;DHT22;12385;51.412;5.540;2022-11-20T00:02:37;1.30;99.90
24262;DHT22;12385;51.412;5.540;2022-11-20T00:05:03;1.20;99.90
24262;DHT22;12385;51.412;5.540;2022-11-20T00:07:31;1.20;99.90
24262;DHT22;12385;51.412;5.540;2022-11-20T00:09:56;1.10;99.90
24262;DHT22;12385;51.412;5.540;2022-11-20T00:12:23;1.10;99.90
24262;DHT22;12385;51.412;5.540;2022-11-20T00:14:49;1.10;99.90
24262;DHT22;12385;51.412;5.540;2022-11-20T00:17:15;1.10;99.90
24262;DHT22;12385;51.412;5.540;2022-11-20T00:19:40;1.00;99.90
24262;DHT22;12385;51.412;5.540;2022-11-20T00:22:07;1.00;99.90
24262;DHT22;12385;51.412;5.540;2022-11-20T00:24:33;0.90;99.90
24262;DHT22;12385;51.412;5.540;2022-11-20T00:26:58;0.90;99.90
24262;DHT22;12385;51.412;5.540;2022-11-20T00:29:24;0.90;99.90
24262;DHT22;12385;51.412;5.540;2022-11-20T00:31:50;0.80;99.90
24262;DHT22;12385;51.412;5.540;2022-11-20T00:34:15;0.80;99.90
24262;DHT22;12385;51.412;5.540;2022-11-20T00:36:41;0.70;99.90
24262;DHT22;12385;51.412;5.540;2022-11-20T00:39:10;0.70;99.90
24262;DHT22;12385;51.412;5.540;2022-11-20T00:41:36;0.70;99.90
24262;DHT22;12385;51.412;5.540;2022-11-20T00:44:01;0.60;99.90
24262;DHT22;12385;51.412;5.540;2022-11-20T00:46:28;0.60;99.90
24262;DHT22;12385;51.412;5.540;2022-11-20T00:48:54;0.60;99.90
24262;DHT22;12385;51.412;5.540;2022-11-20T00:51:24;0.50;99.90
24262;DHT22;12385;51.412;5.540;2022-11-20T00:53:52;0.50;99.90
24262;DHT22;12385;51.412;5.540;2022-11-20T00:56:19;0.40;99.90
24262;DHT22;12385;51.412;5.540;2022-11-20T00:58:47;0.40;99.90
24262;DHT22;12385;51.412;5.540;2022-11-20T01:01:22;0.40;99.90
24262;DHT22;12385;51.412;5.540;2022-11-20T01:03:51;0.30;99.90
24262;DHT22;12385;51.412;5.540;2022-11-20T01:06:29;0.30;99.90
24262;DHT22;12385;51.412;5.540;2022-11-20T01:08:58;0.30;99.90
24262;DHT22;12385;51.412;5.540;2022-11-20T01:11:38;0.20;99.90
24262;DHT22;12385;51.412;5.540;2022-11-20T01:14:06;0.20;99.90
24262;DHT22;12385;51.412;5.540;2022-11-20T01:16:37;0.10;99.90
24262;DHT22;12385;51.412;5.540;2022-11-20T01:19:07;0.10;99.90
24262;DHT22;12385;51.412;5.540;2022-11-20T01:21:35;0.10;99.90
24262;DHT22;12385;51.412;5.540;2022-11-20T01:24:04;0.10;99.90
24262;DHT22;12385;51.412;5.540;2022-11-20T01:26:33;0.10;99.90
24262;DHT22;12385;51.412;5.540;2022-11-20T01:29:00;0.00;99.90
24262;DHT22;12385;51.412;5.540;2022-11-20T01:31:31;0.00;99.90
24262;DHT22;12385;51.412;5.540;2022-11-20T01:34:00;0.00;99.90
24262;DHT22;12385;51.412;5.540;2022-11-20T01:36:30;0.00;99.90
24262;DHT22;12385;51.412;5.540;2022-11-20T01:38:58;0.10;99.90
24262;DHT22;12385;51.412;5.540;2022-11-20T01:41:25;0.10;99.90
24262;DHT22;12385;51.412;5.540;2022-11-20T01:44:11;0.20;99.90
24262;DHT22;12385;51.412;5.540;2022-11-20T01:46:39;0.30;99.90
24262;DHT22;12385;51.412;5.540;2022-11-20T01:49:12;0.40;99.90
24262;DHT22;12385;51.412;5.540;2022-11-20T01:51:43;0.50;99.90
24262;DHT22;12385;51.412;5.540;2022-11-20T01:54:16;0.50;99.90
24262;DHT22;12385;51.412;5.540;2022-11-20T01:56:44;0.60;99.90
24262;DHT22;12385;51.412;5.540;2022-11-20T01:59:14;0.60;99.90
24262;DHT22;12385;51.412;5.540;2022-11-20T02:01:41;0.50;99.90
24262;DHT22;12385;51.412;5.540;2022-11-20T02:04:08;0.50;99.90
24262;DHT22;12385;51.412;5.540;2022-11-20T02:06:48;0.60;99.90
24262;DHT22;12385;51.412;5.540;2022-11-20T02:09:15;0.60;99.90
24262;DHT22;12385;51.412;5.540;2022-11-20T02:11:41;0.60;99.90
24262;DHT22;12385;51.412;5.540;2022-11-20T02:14:07;0.70;99.90
24262;DHT22;12385;51.412;5.540;2022-11-20T02:16:37;0.70;99.90
24262;DHT22;12385;51.412;5.540;2022-11-20T02:19:10;0.80;99.90
24262;DHT22;12385;51.412;5.540;2022-11-20T02:24:39;0.90;99.90
24262;DHT22;12385;51.412;5.540;2022-11-20T02:27:14;0.90;99.90
24262;DHT22;12385;51.412;5.540;2022-11-20T02:29:50;0.90;99.90
24262;DHT22;12385;51.412;5.540;2022-11-20T02:32:36;0.90;99.90
24262;DHT22;12385;51.412;5.540;2022-11-20T02:35:07;1.00;99.90
24262;DHT22;12385;51.412;5.540;2022-11-20T02:37:37;1.00;99.90
24262;DHT22;12385;51.412;5.540;2022-11-20T02:40:04;1.00;99.90
24262;DHT22;12385;51.412;5.540;2022-11-20T02:42:30;1.10;99.90
24262;DHT22;12385;51.412;5.540;2022-11-20T02:44:55;1.10;99.90
24262;DHT22;12385;51.412;5.540;2022-11-20T02:47:22;1.10;99.90
24262;DHT22;12385;51.412;5.540;2022-11-20T02:49:48;1.10;99.90
24262;DHT22;12385;51.412;5.540;2022-11-20T02:52:13;1.10;99.90
24262;DHT22;12385;51.412;5.540;2022-11-20T02:54:39;1.10;99.90
24262;DHT22;12385;51.412;5.540;2022-11-20T02:57:05;1.10;99.90
24262;DHT22;12385;51.412;5.540;2022-11-20T02:59:30;1.10;99.90
24262;DHT22;12385;51.412;5.540;2022-11-20T03:01:56;1.10;99.90
24262;DHT22;12385;51.412;5.540;2022-11-20T03:04:22;1.10;99.90
24262;DHT22;12385;51.412;5.540;2022-11-20T03:06:47;1.10;99.90
24262;DHT22;12385;51.412;5.540;2022-11-20T03:09:13;1.10;99.90
24262;DHT22;12385;51.412;5.540;2022-11-20T03:11:39;1.20;99.90
24262;DHT22;12385;51.412;5.540;2022-11-20T03:14:05;1.20;99.90
24262;DHT22;12385;51.412;5.540;2022-11-20T03:16:32;1.20;99.90
24262;DHT22;12385;51.412;5.540;2022-11-20T03:18:58;1.20;99.90
24262;DHT22;12385;51.412;5.540;2022-11-20T03:21:27;1.20;99.90
24262;DHT22;12385;51.412;5.540;2022-11-20T03:24:08;1.20;99.90
24262;DHT22;12385;51.412;5.540;2022-11-20T03:26:34;1.30;99.90
24262;DHT22;12385;51.412;5.540;2022-11-20T03:29:02;1.20;99.90
24262;DHT22;12385;51.412;5.540;2022-11-20T03:31:37;1.20;99.90
24262;DHT22;12385;51.412;5.540;2022-11-20T03:34:05;1.20;99.90
24262;DHT22;12385;51.412;5.540;2022-11-20T03:36:32;1.20;99.90
24262;DHT22;12385;51.412;5.540;2022-11-20T03:38:58;1.20;99.90
24262;DHT22;12385;51.412;5.540;2022-11-20T03:41:27;1.20;99.90
24262;DHT22;12385;51.412;5.540;2022-11-20T03:44:00;1.20;99.90
24262;DHT22;12385;51.412;5.540;2022-11-20T03:46:27;1.20;99.90
24262;DHT22;12385;51.412;5.540;2022-11-20T03:48:53;1.20;99.90
24262;DHT22;12385;51.412;5.540;2022-11-20T06:59:38;1.80;99.90
24262;DHT22;12385;51.412;5.540;2022-11-20T07:02:03;1.80;99.90
24262;DHT22;12385;51.412;5.540;2022-11-20T07:04:29;1.90;99.90
24262;DHT22;12385;51.412;5.540;2022-11-20T07:06:54;1.90;99.90
24262;DHT22;12385;51.412;5.540;2022-11-20T07:09:20;1.90;99.90
24262;DHT22;12385;51.412;5.540;2022-11-20T07:11:45;2.00;99.90
24262;DHT22;12385;51.412;5.540;2022-11-20T07:14:11;2.00;99.90
24262;DHT22;12385;51.412;5.540;2022-11-20T07:16:43;2.00;99.90
24262;DHT22;12385;51.412;5.540;2022-11-20T07:19:29;2.00;99.90
24262;DHT22;12385;51.412;5.540;2022-11-20T07:21:54;2.00;99.90
24262;DHT22;12385;51.412;5.540;2022-11-20T07:24:23;2.10;99.90
24262;DHT22;12385;51.412;5.540;2022-11-20T07:26:51;2.00;99.90
24262;DHT22;12385;51.412;5.540;2022-11-20T07:29:19;2.00;99.90
24262;DHT22;12385;51.412;5.540;2022-11-20T07:31:44;2.10;99.90
24262;DHT22;12385;51.412;5.540;2022-11-20T07:34:10;2.10;99.90
24262;DHT22;12385;51.412;5.540;2022-11-20T07:36:36;2.10;99.90
24262;DHT22;12385;51.412;5.540;2022-11-20T07:39:01;2.10;99.90
24262;DHT22;12385;51.412;5.540;2022-11-20T07:41:27;2.10;99.90
24262;DHT22;12385;51.412;5.540;2022-11-20T07:43:53;2.10;99.90
24262;DHT22;12385;51.412;5.540;2022-11-20T07:46:20;2.10;99.90
24262;DHT22;12385;51.412;5.540;2022-11-20T07:48:46;2.10;99.90
24262;DHT22;12385;51.412;5.540;2022-11-20T07:51:12;2.10;99.90
24262;DHT22;12385;51.412;5.540;2022-11-20T07:53:38;2.10;99.90
24262;DHT22;12385;51.412;5.540;2022-11-20T07:56:09;2.10;99.90
24262;DHT22;12385;51.412;5.540;2022-11-20T07:58:37;2.20;99.90
24262;DHT22;12385;51.412;5.540;2022-11-20T08:01:07;2.20;99.90
24262;DHT22;12385;51.412;5.540;2022-11-20T08:03:39;2.20;99.90
24262;DHT22;12385;51.412;5.540;2022-11-20T08:06:05;2.20;99.90
24262;DHT22;12385;51.412;5.540;2022-11-20T08:08:40;2.20;99.90
24262;DHT22;12385;51.412;5.540;2022-11-20T08:11:06;2.30;99.90
24262;DHT22;12385;51.412;5.540;2022-11-20T08:13:50;2.30;99.90
24262;DHT22;12385;51.412;5.540;2022-11-20T08:16:34;2.30;99.90
24262;DHT22;12385;51.412;5.540;2022-11-20T08:19:00;2.40;99.90
24262;DHT22;12385;51.412;5.540;2022-11-20T08:21:25;2.40;99.90
24262;DHT22;12385;51.412;5.540;2022-11-20T08:23:51;2.40;99.90
24262;DHT22;12385;51.412;5.540;2022-11-20T08:26:17;2.50;99.90
24262;DHT22;12385;51.412;5.540;2022-11-20T08:28:42;2.50;99.90
24262;DHT22;12385;51.412;5.540;2022-11-20T08:31:09;2.60;99.90
24262;DHT22;12385;51.412;5.540;2022-11-20T08:33:35;2.60;99.90
24262;DHT22;12385;51.412;5.540;2022-11-20T08:36:02;2.70;99.90
24262;DHT22;12385;51.412;5.540;2022-11-20T08:38:28;2.70;99.90
24262;DHT22;12385;51.412;5.540;2022-11-20T08:41:01;2.70;99.90
24262;DHT22;12385;51.412;5.540;2022-11-20T08:43:46;2.70;99.90
24262;DHT22;12385;51.412;5.540;2022-11-20T08:46:13;2.70;99.90
24262;DHT22;12385;51.412;5.540;2022-11-20T08:48:39;2.80;99.90
24262;DHT22;12385;51.412;5.540;2022-11-20T08:51:05;2.80;99.90
24262;DHT22;12385;51.412;5.540;2022-11-20T08:53:32;2.80;99.90
24262;DHT22;12385;51.412;5.540;2022-11-20T08:55:58;2.90;99.90
24262;DHT22;12385;51.412;5.540;2022-11-20T08:58:24;2.90;99.90
24262;DHT22;12385;51.412;5.540;2022-11-20T09:00:50;2.90;99.90
24262;DHT22;12385;51.412;5.540;2022-11-20T09:03:15;3.00;99.90
24262;DHT22;12385;51.412;5.540;2022-11-20T09:05:41;3.00;99.90
24262;DHT22;12385;51.412;5.540;2022-11-20T09:08:08;3.10;99.90
24262;DHT22;12385;51.412;5.540;2022-11-20T09:10:34;3.10;99.90
24262;DHT22;12385;51.412;5.540;2022-11-20T09:12:59;3.10;99.90
24262;DHT22;12385;51.412;5.540;2022-11-20T09:15:25;3.20;99.90
24262;DHT22;12385;51.412;5.540;2022-11-20T09:17:52;3.20;99.90
24262;DHT22;12385;51.412;5.540;2022-11-20T09:20:19;3.20;99.90
24262;DHT22;12385;51.412;5.540;2022-11-20T09:22:44;3.30;99.90
24262;DHT22;12385;51.412;5.540;2022-11-20T09:25:12;3.30;99.90
24262;DHT22;12385;51.412;5.540;2022-11-20T09:27:38;3.40;99.90
24262;DHT22;12385;51.412;5.540;2022-11-20T09:30:03;3.30;99.90
24262;DHT22;12385;51.412;5.540;2022-11-20T09:32:29;3.40;99.90
24262;DHT22;12385;51.412;5.540;2022-11-20T09:34:55;3.40;99.90
24262;DHT22;12385;51.412;5.540;2022-11-20T09:37:20;3.50;99.90
24262;DHT22;12385;51.412;5.540;2022-11-20T09:39:47;3.50;99.90
24262;DHT22;12385;51.412;5.540;2022-11-20T09:50:49;3.70;99.90
24262;DHT22;12385;51.412;5.540;2022-11-20T09:55:51;3.80;99.90
24262;DHT22;12385;51.412;5.540;2022-11-20T09:58:29;3.80;99.90
24262;DHT22;12385;51.412;5.540;2022-11-20T10:01:05;3.90;99.90
24262;DHT22;12385;51.412;5.540;2022-11-20T10:04:02;3.90;99.90
24262;DHT22;12385;51.412;5.540;2022-11-20T10:09:20;4.00;99.90
24262;DHT22;12385;51.412;5.540;2022-11-20T10:12:09;4.00;99.90
24262;DHT22;12385;51.412;5.540;2022-11-20T10:20:32;4.10;99.90
24262;DHT22;12385;51.412;5.540;2022-11-20T10:25:24;4.40;99.90
24262;DHT22;12385;51.412;5.540;2022-11-20T10:30:20;4.60;99.90
24262;DHT22;12385;51.412;5.540;2022-11-20T10:32:52;4.60;99.90
24262;DHT22;12385;51.412;5.540;2022-11-20T10:35:42;4.70;99.90
24262;DHT22;12385;51.412;5.540;2022-11-20T10:38:15;4.70;99.90
24262;DHT22;12385;51.412;5.540;2022-11-20T10:40:44;4.80;99.90
24262;DHT22;12385;51.412;5.540;2022-11-20T10:43:18;4.80;99.90
24262;DHT22;12385;51.412;5.540;2022-11-20T10:45:53;4.80;99.90
24262;DHT22;12385;51.412;5.540;2022-11-20T10:48:26;4.90;99.90
24262;DHT22;12385;51.412;5.540;2022-11-20T10:54:09;5.00;99.90
24262;DHT22;12385;51.412;5.540;2022-11-20T10:56:48;5.00;99.90
24262;DHT22;12385;51.412;5.540;2022-11-20T10:59:51;5.00;99.90
24262;DHT22;12385;51.412;5.540;2022-11-20T14:14:22;6.50;99.90
24262;DHT22;12385;51.412;5.540;2022-11-20T14:17:22;6.50;99.90
24262;DHT22;12385;51.412;5.540;2022-11-20T14:20:12;6.50;99.90
24262;DHT22;12385;51.412;5.540;2022-11-20T14:22:54;6.50;99.90
24262;DHT22;12385;51.412;5.540;2022-11-20T14:25:23;6.50;99.90
24262;DHT22;12385;51.412;5.540;2022-11-20T14:27:58;6.50;99.90
24262;DHT22;12385;51.412;5.540;2022-11-20T14:30:36;6.50;99.90
24262;DHT22;12385;51.412;5.540;2022-11-20T14:33:03;6.50;99.90
24262;DHT22;12385;51.412;5.540;2022-11-20T14:35:34;6.50;99.90
24262;DHT22;12385;51.412;5.540;2022-11-20T14:38:11;6.50;99.90
24262;DHT22;12385;51.412;5.540;2022-11-20T14:40:37;6.50;99.90
24262;DHT22;12385;51.412;5.540;2022-11-20T14:43:26;6.50;99.90
24262;DHT22;12385;51.412;5.540;2022-11-20T14:46:04;6.50;99.90
24262;DHT22;12385;51.412;5.540;2022-11-20T14:48:40;6.40;99.90
24262;DHT22;12385;51.412;5.540;2022-11-20T14:51:10;6.40;99.90
24262;DHT22;12385;51.412;5.540;2022-11-20T14:53:35;6.50;99.90
24262;DHT22;12385;51.412;5.540;2022-11-20T14:56:02;6.50;99.90
24262;DHT22;12385;51.412;5.540;2022-11-20T14:58:33;6.40;99.90
24262;DHT22;12385;51.412;5.540;2022-11-20T15:01:01;6.40;99.90
24262;DHT22;12385;51.412;5.540;2022-11-20T15:03:38;6.50;99.90
24262;DHT22;12385;51.412;5.540;2022-11-20T15:06:06;6.40;99.90
24262;DHT22;12385;51.412;5.540;2022-11-20T15:08:32;6.50;99.90
24262;DHT22;12385;51.412;5.540;2022-11-20T15:10:58;6.40;99.90
24262;DHT22;12385;51.412;5.540;2022-11-20T15:13:31;6.50;99.90
24262;DHT22;12385;51.412;5.540;2022-11-20T15:15:58;6.50;99.90
24262;DHT22;12385;51.412;5.540;2022-11-20T15:18:32;6.40;99.90
24262;DHT22;12385;51.412;5.540;2022-11-20T15:21:03;6.50;99.90
24262;DHT22;12385;51.412;5.540;2022-11-20T15:23:30;6.50;99.90
24262;DHT22;12385;51.412;5.540;2022-11-20T15:25:59;6.50;99.90
24262;DHT22;12385;51.412;5.540;2022-11-20T15:28:31;6.50;99.90
24262;DHT22;12385;51.412;5.540;2022-11-20T15:30:57;6.50;99.90
24262;DHT22;12385;51.412;5.540;2022-11-20T15:33:23;6.50;99.90
24262;DHT22;12385;51.412;5.540;2022-11-20T15:35:48;6.60;99.90
24262;DHT22;12385;51.412;5.540;2022-11-20T15:38:14;6.50;99.90
24262;DHT22;12385;51.412;5.540;2022-11-20T15:40:42;6.60;99.90
24262;DHT22;12385;51.412;5.540;2022-11-20T15:43:08;6.60;99.90
24262;DHT22;12385;51.412;5.540;2022-11-20T15:45:38;6.60;99.90
24262;DHT22;12385;51.412;5.540;2022-11-20T15:48:08;6.60;99.90
24262;DHT22;12385;51.412;5.540;2022-11-20T15:50:48;6.60;99.90
24262;DHT22;12385;51.412;5.540;2022-11-20T15:53:16;6.60;99.90
24262;DHT22;12385;51.412;5.540;2022-11-20T15:55:41;6.60;99.90
24262;DHT22;12385;51.412;5.540;2022-11-20T15:58:07;6.60;99.90
24262;DHT22;12385;51.412;5.540;2022-11-20T16:00:33;6.70;99.90
24262;DHT22;12385;51.412;5.540;2022-11-20T16:02:58;6.70;99.90
24262;DHT22;12385;51.412;5.540;2022-11-20T16:05:29;6.70;99.90
24262;DHT22;12385;51.412;5.540;2022-11-20T16:07:56;6.70;99.90
24262;DHT22;12385;51.412;5.540;2022-11-20T16:10:26;6.80;99.90
24262;DHT22;12385;51.412;5.540;2022-11-20T16:12:53;6.80;99.90
24262;DHT22;12385;51.412;5.540;2022-11-20T16:15:38;6.70;99.90
24262;DHT22;12385;51.412;5.540;2022-11-20T16:18:11;6.70;99.90
24262;DHT22;12385;51.412;5.540;2022-11-20T16:20:37;6.80;99.90
24262;DHT22;12385;51.412;5.540;2022-11-20T16:23:03;6.80;99.90
24262;DHT22;12385;51.412;5.540;2022-11-20T16:25:29;6.80;99.90
24262;DHT22;12385;51.412;5.540;2022-11-20T16:27:55;6.80;99.90
24262;DHT22;12385;51.412;5.540;2022-11-20T16:30:20;6.90;99.90
24262;DHT22;12385;51.412;5.540;2022-11-20T16:32:46;6.90;99.90
24262;DHT22;12385;51.412;5.540;2022-11-20T16:35:12;6.90;99.90
24262;DHT22;12385;51.412;5.540;2022-11-20T16:37:37;6.90;99.90
24262;DHT22;12385;51.412;5.540;2022-11-20T16:40:04;7.00;99.90
24262;DHT22;12385;51.412;5.540;2022-11-20T16:42:33;7.00;99.90
24262;DHT22;12385;51.412;5.540;2022-11-20T16:44:59;7.10;99.90
24262;DHT22;12385;51.412;5.540;2022-11-20T16:47:24;7.00;99.90
24262;DHT22;12385;51.412;5.540;2022-11-20T16:49:50;7.00;99.90
24262;DHT22;12385;51.412;5.540;2022-11-20T16:52:15;7.00;99.90
24262;DHT22;12385;51.412;5.540;2022-11-20T16:54:41;7.10;99.90
24262;DHT22;12385;51.412;5.540;2022-11-20T16:57:06;7.10;99.90
24262;DHT22;12385;51.412;5.540;2022-11-20T16:59:32;7.10;99.90
24262;DHT22;12385;51.412;5.540;2022-11-20T17:01:57;7.20;99.90
24262;DHT22;12385;51.412;5.540;2022-11-20T17:04:23;7.20;99.90
24262;DHT22;12385;51.412;5.540;2022-11-20T17:06:49;7.20;99.90
24262;DHT22;12385;51.412;5.540;2022-11-20T17:09:14;7.20;99.90
24262;DHT22;12385;51.412;5.540;2022-11-20T17:11:40;7.20;99.90
24262;DHT22;12385;51.412;5.540;2022-11-20T17:14:10;7.30;99.90
24262;DHT22;12385;51.412;5.540;2022-11-20T17:16:36;7.30;99.90
24262;DHT22;12385;51.412;5.540;2022-11-20T17:19:03;7.30;99.90
24262;DHT22;12385;51.412;5.540;2022-11-20T17:21:36;7.30;99.90
24262;DHT22;12385;51.412;5.540;2022-11-20T17:24:05;7.40;99.90
24262;DHT22;12385;51.412;5.540;2022-11-20T17:26:31;7.40;99.90
24262;DHT22;12385;51.412;5.540;2022-11-20T17:29:05;7.40;99.90
24262;DHT22;12385;51.412;5.540;2022-11-20T17:31:32;7.40;99.90
24262;DHT22;12385;51.412;5.540;2022-11-20T17:33:58;7.50;99.90
24262;DHT22;12385;51.412;5.540;2022-11-20T17:36:25;7.50;99.90
24262;DHT22;12385;51.412;5.540;2022-11-20T17:38:59;7.50;99.90
24262;DHT22;12385;51.412;5.540;2022-11-20T17:41:26;7.50;99.90
24262;DHT22;12385;51.412;5.540;2022-11-20T17:43:54;7.50;99.90
24262;DHT22;12385;51.412;5.540;2022-11-20T17:46:22;7.60;99.90
24262;DHT22;12385;51.412;5.540;2022-11-20T17:48:48;7.60;99.90
24262;DHT22;12385;51.412;5.540;2022-11-20T17:51:19;7.60;99.90
24262;DHT22;12385;51.412;5.540;2022-11-20T17:53:49;7.70;99.90
24262;DHT22;12385;51.412;5.540;2022-11-20T17:56:15;7.80;99.90
24262;DHT22;12385;51.412;5.540;2022-11-20T17:59:04;7.80;99.90
24262;DHT22;12385;51.412;5.540;2022-11-20T18:01:29;7.90;99.90
24262;DHT22;12385;51.412;5.540;2022-11-20T18:03:56;7.90;99.90
24262;DHT22;12385;51.412;5.540;2022-11-20T18:06:27;7.90;99.90
24262;DHT22;12385;51.412;5.540;2022-11-20T18:08:53;8.00;99.90
24262;DHT22;12385;51.412;5.540;2022-11-20T18:11:21;8.00;99.90
24262;DHT22;12385;51.412;5.540;2022-11-20T18:13:50;8.00;99.90
24262;DHT22;12385;51.412;5.540;2022-11-20T18:16:44;8.10;99.90
24262;DHT22;12385;51.412;5.540;2022-11-20T18:19:12;8.10;99.90
24262;DHT22;12385;51.412;5.540;2022-11-20T18:21:38;8.10;99.90
24262;DHT22;12385;51.412;5.540;2022-11-20T18:24:04;8.10;99.90
24262;DHT22;12385;51.412;5.540;2022-11-20T18:26:30;8.10;99.90
24262;DHT22;12385;51.412;5.540;2022-11-20T18:28:56;8.10;99.90
24262;DHT22;12385;51.412;5.540;2022-11-20T18:31:22;8.20;99.90
24262;DHT22;12385;51.412;5.540;2022-11-20T18:33:48;8.20;99.90
24262;DHT22;12385;51.412;5.540;2022-11-20T18:36:19;8.20;99.90
24262;DHT22;12385;51.412;5.540;2022-11-20T18:38:47;8.20;99.90
24262;DHT22;12385;51.412;5.540;2022-11-20T18:41:15;8.20;99.90
24262;DHT22;12385;51.412;5.540;2022-11-20T18:44:05;8.20;99.90
24262;DHT22;12385;51.412;5.540;2022-11-20T18:46:49;8.20;99.90
24262;DHT22;12385;51.412;5.540;2022-11-20T18:49:15;8.10;99.90
24262;DHT22;12385;51.412;5.540;2022-11-20T18:51:41;8.10;99.90
24262;DHT22;12385;51.412;5.540;2022-11-20T18:54:11;8.20;99.90
24262;DHT22;12385;51.412;5.540;2022-11-20T18:56:37;8.20;99.90
24262;DHT22;12385;51.412;5.540;2022-11-20T18:59:05;8.10;99.90
24262;DHT22;12385;51.412;5.540;2022-11-20T19:01:32;8.10;99.90
24262;DHT22;12385;51.412;5.540;2022-11-20T19:03:58;8.10;99.90
24262;DHT22;12385;51.412;5.540;2022-11-20T19:06:25;8.10;99.90
24262;DHT22;12385;51.412;5.540;2022-11-20T19:08:52;8.10;99.90
24262;DHT22;12385;51.412;5.540;2022-11-20T19:11:18;8.10;99.90
24262;DHT22;12385;51.412;5.540;2022-11-20T19:13:44;8.10;99.90
24262;DHT22;12385;51.412;5.540;2022-11-20T19:16:18;8.10;99.90
24262;DHT22;12385;51.412;5.540;2022-11-20T19:18:44;8.10;99.90
24262;DHT22;12385;51.412;5.540;2022-11-20T19:21:18;8.10;99.90
24262;DHT22;12385;51.412;5.540;2022-11-20T19:23:47;8.10;99.90
24262;DHT22;12385;51.412;5.540;2022-11-20T19:26:13;8.10;99.90
24262;DHT22;12385;51.412;5.540;2022-11-20T19:28:38;8.10;99.90
24262;DHT22;12385;51.412;5.540;2022-11-20T19:31:07;8.10;99.90
24262;DHT22;12385;51.412;5.540;2022-11-20T19:33:34;8.10;99.90
24262;DHT22;12385;51.412;5.540;2022-11-20T19:36:10;8.10;99.90
24262;DHT22;12385;51.412;5.540;2022-11-20T19:38:37;8.10;99.90
24262;DHT22;12385;51.412;5.540;2022-11-20T19:41:04;8.00;99.90
24262;DHT22;12385;51.412;5.540;2022-11-20T19:43:30;8.10;99.90
24262;DHT22;12385;51.412;5.540;2022-11-20T19:45:56;8.10;99.90
24262;DHT22;12385;51.412;5.540;2022-11-20T19:48:22;8.10;99.90
24262;DHT22;12385;51.412;5.540;2022-11-20T19:50:48;8.10;99.90
24262;DHT22;12385;51.412;5.540;2022-11-20T19:53:14;8.00;99.90
24262;DHT22;12385;51.412;5.540;2022-11-20T19:55:39;8.10;99.90
24262;DHT22;12385;51.412;5.540;2022-11-20T19:58:07;8.00;99.90
24262;DHT22;12385;51.412;5.540;2022-11-20T20:00:33;8.10;99.90
24262;DHT22;12385;51.412;5.540;2022-11-20T20:02:59;8.10;99.90
24262;DHT22;12385;51.412;5.540;2022-11-20T20:05:24;8.10;99.90
24262;DHT22;12385;51.412;5.540;2022-11-20T20:08:16;8.10;99.90
24262;DHT22;12385;51.412;5.540;2022-11-20T20:11:16;8.10;99.90
24262;DHT22;12385;51.412;5.540;2022-11-20T20:14:11;8.10;99.90
24262;DHT22;12385;51.412;5.540;2022-11-20T22:44:41;7.50;99.90
24262;DHT22;12385;51.412;5.540;2022-11-20T22:47:07;7.50;99.90
24262;DHT22;12385;51.412;5.540;2022-11-20T22:49:32;7.50;99.90
24262;DHT22;12385;51.412;5.540;2022-11-20T22:51:58;7.50;99.90
24262;DHT22;12385;51.412;5.540;2022-11-20T22:54:24;7.50;99.90
24262;DHT22;12385;51.412;5.540;2022-11-20T22:56:49;7.60;99.90
24262;DHT22;12385;51.412;5.540;2022-11-20T22:59:15;7.60;99.90
24262;DHT22;12385;51.412;5.540;2022-11-20T23:01:42;7.60;99.90
24262;DHT22;12385;51.412;5.540;2022-11-20T23:04:09;7.70;99.90
24262;DHT22;12385;51.412;5.540;2022-11-20T23:06:36;7.70;99.90
24262;DHT22;12385;51.412;5.540;2022-11-20T23:09:03;7.70;99.90
24262;DHT22;12385;51.412;5.540;2022-11-20T23:11:30;7.60;99.90
24262;DHT22;12385;51.412;5.540;2022-11-20T23:13:59;7.50;99.90
24262;DHT22;12385;51.412;5.540;2022-11-20T23:16:27;7.50;99.90
24262;DHT22;12385;51.412;5.540;2022-11-20T23:18:55;7.50;99.90
24262;DHT22;12385;51.412;5.540;2022-11-20T23:21:22;7.40;99.90
24262;DHT22;12385;51.412;5.540;2022-11-20T23:23:53;7.40;99.90
24262;DHT22;12385;51.412;5.540;2022-11-20T23:26:20;7.40;99.90
24262;DHT22;12385;51.412;5.540;2022-11-20T23:28:46;7.40;99.90
24262;DHT22;12385;51.412;5.540;2022-11-20T23:31:14;7.40;99.90
24262;DHT22;12385;51.412;5.540;2022-11-20T23:33:42;7.50;99.90
24262;DHT22;12385;51.412;5.540;2022-11-20T23:36:09;7.50;99.90
24262;DHT22;12385;51.412;5.540;2022-11-20T23:38:35;7.50;99.90
24262;DHT22;12385;51.412;5.540;2022-11-20T23:41:01;7.50;99.90
24262;DHT22;12385;51.412;5.540;2022-11-20T23:43:27;7.50;99.90
24262;DHT22;12385;51.412;5.540;2022-11-20T23:45:57;7.50;99.90
24262;DHT22;12385;51.412;5.540;2022-11-20T23:48:25;7.60;99.90
24262;DHT22;12385;51.412;5.540;2022-11-20T23:50:52;7.50;99.90
24262;DHT22;12385;51.412;5.540;2022-11-20T23:53:18;7.50;99.90
24262;DHT22;12385;51.412;5.540;2022-11-20T23:55:49;7.50;99.90
24262;DHT22;12385;51.412;5.540;2022-11-20T23:58:15;7.60;99.90
